Florentia — 9HA4193 — position and weather

sailwx.info

Track history (hours):
 
Tides and Currents Weather Stations Pressure Air Temp Water Temp Dewpoint Dewpoint Depression Visibility Wind Speed Wind Dir Waves Ship Positions

Florentia

Last reported at 2018-May-06 03:23 UTC. Time now 2018-May-24 14:09 UTC.
Position N 01°17' E 103°22'.
Warning: this ship's position is 18 days out of date.

Length 200 m; draft 12.2 m.

Type: Cargo ship. MMSI: 249314000.

Date/timePositionNaut miles runAvg speedWind from/ knotsBaromVisibWave heightAir tempDewpointWater temp
2018-May-06 03:23N 01°17' E 103°22'513.7
2018-May-06 02:59N 01°14' E 103°26'714.2
2018-May-06 02:29N 01°12' E 103°33'612.9
2018-May-06 01:59N 01°11' E 103°39'612.1
2018-May-06 01:30N 01°09' E 103°45'510.6
2018-May-06 00:59N 01°11' E 103°50'4 8.6
2018-May-06 00:30N 01°13' E 103°53'5 9.7
2018-May-06 00:00N 01°15' E 103°58'2 2.9
2018-May-05 23:19N 01°17' E 103°59'0 0.1
2018-May-05 22:47N 01°17' E 103°59'0 0.0
2018-May-05 22:25N 01°17' E 103°59'0 0.0
2018-May-05 21:49N 01°17' E 103°59'0 0.0
2018-May-05 21:19N 01°17' E 103°59'0 0.0
2018-May-05 20:58N 01°17' E 103°59'0 0.0
2018-May-05 20:28N 01°17' E 103°59'0 0.0
2018-May-05 19:58N 01°17' E 103°59'0 0.2
2018-May-05 19:10N 01°17' E 103°59'0 0.3
2018-May-05 18:56N 01°17' E 103°59'0 0.2
2018-May-05 18:30N 01°17' E 103°59'0 0.1
2018-May-05 17:58N 01°17' E 103°59'0 0.0
2018-May-05 17:28N 01°17' E 103°59'0 0.0
2018-May-05 16:48N 01°17' E 103°59'0 0.0
2018-May-05 16:25N 01°17' E 103°59'0 0.0
2018-May-05 16:00N 01°17' E 103°59'0 0.0
2018-May-05 15:30N 01°17' E 103°59'0 0.0
2018-May-05 14:54N 01°17' E 103°59'0 0.0
2018-May-05 14:30N 01°17' E 103°59'0 0.0
2018-May-05 13:52N 01°17' E 103°59'0 0.0
2018-May-05 13:28N 01°17' E 103°59'0 0.0
2018-May-05 12:55N 01°17' E 103°59'0 0.0
2018-May-05 12:28N 01°17' E 103°59'0 0.0
2018-May-05 11:52N 01°17' E 103°59'0 0.0
2018-May-05 11:30N 01°17' E 103°59'0 0.0
2018-May-05 10:58N 01°17' E 103°59'0 0.0
2018-May-05 10:24N 01°17' E 103°59'0 0.1
2018-May-05 09:52N 01°17' E 103°59'0 0.2
2018-May-05 09:28N 01°17' E 103°59'0 0.1
2018-May-05 08:59N 01°17' E 103°59'1 1.8
2018-May-05 08:30N 01°16' E 103°59'2 4.0
2018-May-05 08:00N 01°16' E 104°01'3 6.5
2018-May-05 07:30N 01°16' E 104°04'4 7.2
2018-May-05 06:59N 01°17' E 104°08'5 8.7
2018-May-05 06:28N 01°17' E 104°12'713.3
2018-May-05 05:57N 01°19' E 104°19'613.0
2018-May-05 05:30N 01°22' E 104°23'  
2018-Apr-28 10:16N 31°37' E 123°10'513.2
2018-Apr-28 09:56N 31°42' E 123°09'22211.9
2018-Apr-27 15:15N 34°48' E 120°46'  
Track history (hours):
 
Tides and Currents Weather Stations Pressure Air Temp Water Temp Dewpoint Dewpoint Depression Visibility Wind Speed Wind Dir Waves Ship Positions

Florentia

Last reported at 2018-May-06 03:23 UTC. Time now 2018-May-24 14:09 UTC.
Position N 01°17' E 103°22'.
Warning: this ship's position is 18 days out of date.

Length 200 m; draft 12.2 m.

Type: Cargo ship. MMSI: 249314000.

Date/timePositionNaut miles runAvg speedWind from/ knotsBaromVisibWave heightAir tempDewpointWater temp
2018-May-06 03:23N 01°17' E 103°22'513.7
2018-May-06 02:59N 01°14' E 103°26'714.2
2018-May-06 02:29N 01°12' E 103°33'612.9
2018-May-06 01:59N 01°11' E 103°39'612.1
2018-May-06 01:30N 01°09' E 103°45'510.6
2018-May-06 00:59N 01°11' E 103°50'4 8.6
2018-May-06 00:30N 01°13' E 103°53'5 9.7
2018-May-06 00:00N 01°15' E 103°58'2 2.9
2018-May-05 23:19N 01°17' E 103°59'0 0.1
2018-May-05 22:47N 01°17' E 103°59'0 0.0
2018-May-05 22:25N 01°17' E 103°59'0 0.0
2018-May-05 21:49N 01°17' E 103°59'0 0.0
2018-May-05 21:19N 01°17' E 103°59'0 0.0
2018-May-05 20:58N 01°17' E 103°59'0 0.0
2018-May-05 20:28N 01°17' E 103°59'0 0.0
2018-May-05 19:58N 01°17' E 103°59'0 0.2
2018-May-05 19:10N 01°17' E 103°59'0 0.3
2018-May-05 18:56N 01°17' E 103°59'0 0.2
2018-May-05 18:30N 01°17' E 103°59'0 0.1
2018-May-05 17:58N 01°17' E 103°59'0 0.0
2018-May-05 17:28N 01°17' E 103°59'0 0.0
2018-May-05 16:48N 01°17' E 103°59'0 0.0
2018-May-05 16:25N 01°17' E 103°59'0 0.0
2018-May-05 16:00N 01°17' E 103°59'0 0.0
2018-May-05 15:30N 01°17' E 103°59'0 0.0
2018-May-05 14:54N 01°17' E 103°59'0 0.0
2018-May-05 14:30N 01°17' E 103°59'0 0.0
2018-May-05 13:52N 01°17' E 103°59'0 0.0
2018-May-05 13:28N 01°17' E 103°59'0 0.0
2018-May-05 12:55N 01°17' E 103°59'0 0.0
2018-May-05 12:28N 01°17' E 103°59'0 0.0
2018-May-05 11:52N 01°17' E 103°59'0 0.0
2018-May-05 11:30N 01°17' E 103°59'0 0.0
2018-May-05 10:58N 01°17' E 103°59'0 0.0
2018-May-05 10:24N 01°17' E 103°59'0 0.1
2018-May-05 09:52N 01°17' E 103°59'0 0.2
2018-May-05 09:28N 01°17' E 103°59'0 0.1
2018-May-05 08:59N 01°17' E 103°59'1 1.8
2018-May-05 08:30N 01°16' E 103°59'2 4.0
2018-May-05 08:00N 01°16' E 104°01'3 6.5
2018-May-05 07:30N 01°16' E 104°04'4 7.2
2018-May-05 06:59N 01°17' E 104°08'5 8.7
2018-May-05 06:28N 01°17' E 104°12'713.3
2018-May-05 05:57N 01°19' E 104°19'613.0
2018-May-05 05:30N 01°22' E 104°23'  
2018-Apr-28 10:16N 31°37' E 123°10'513.2
2018-Apr-28 09:56N 31°42' E 123°09'22211.9
2018-Apr-27 15:15N 34°48' E 120°46'  

Dump ship's entire track history